sensor_id;sensor_type;location;lat;lon;timestamp;P1;durP1;ratioP1;P2;durP2;ratioP2
3873;SDS011;1952;50.872;6.692;2022-11-20T00:30:43;17.63;;;12.80;;
3873;SDS011;1952;50.872;6.692;2022-11-20T00:33:11;22.67;;;15.73;;
3873;SDS011;1952;50.872;6.692;2022-11-20T00:35:39;20.80;;;14.90;;
3873;SDS011;1952;50.872;6.692;2022-11-20T00:38:08;22.40;;;15.47;;
3873;SDS011;1952;50.872;6.692;2022-11-20T00:40:36;23.43;;;15.40;;
3873;SDS011;1952;50.872;6.692;2022-11-20T00:43:09;25.30;;;16.30;;
3873;SDS011;1952;50.872;6.692;2022-11-20T00:45:41;23.43;;;15.53;;
3873;SDS011;1952;50.872;6.692;2022-11-20T00:48:11;22.40;;;16.70;;
3873;SDS011;1952;50.872;6.692;2022-11-20T00:50:39;19.70;;;14.37;;
3873;SDS011;1952;50.872;6.692;2022-11-20T00:53:13;15.63;;;12.83;;
3873;SDS011;1952;50.872;6.692;2022-11-20T00:55:52;19.73;;;13.40;;
3873;SDS011;1952;50.872;6.692;2022-11-20T00:58:28;14.43;;;9.93;;
3873;SDS011;1952;50.872;6.692;2022-11-20T01:01:01;18.40;;;13.13;;
3873;SDS011;1952;50.872;6.692;2022-11-20T01:03:32;19.10;;;14.07;;
3873;SDS011;1952;50.872;6.692;2022-11-20T01:06:06;16.53;;;12.07;;
3873;SDS011;1952;50.872;6.692;2022-11-20T01:08:36;15.73;;;12.07;;
3873;SDS011;1952;50.872;6.692;2022-11-20T01:11:11;18.57;;;11.67;;
3873;SDS011;1952;50.872;6.692;2022-11-20T01:13:40;19.30;;;14.40;;
3873;SDS011;1952;50.872;6.692;2022-11-20T01:16:09;16.77;;;11.43;;
3873;SDS011;1952;50.872;6.692;2022-11-20T01:18:41;12.40;;;10.97;;
3873;SDS011;1952;50.872;6.692;2022-11-20T01:21:11;17.83;;;12.00;;
3873;SDS011;1952;50.872;6.692;2022-11-20T01:23:41;14.13;;;10.73;;
3873;SDS011;1952;50.872;6.692;2022-11-20T01:26:11;18.43;;;13.43;;
3873;SDS011;1952;50.872;6.692;2022-11-20T01:28:45;13.40;;;10.40;;
3873;SDS011;1952;50.872;6.692;2022-11-20T01:31:19;10.90;;;9.23;;
3873;SDS011;1952;50.872;6.692;2022-11-20T01:33:55;13.43;;;10.73;;
3873;SDS011;1952;50.872;6.692;2022-11-20T01:36:24;16.63;;;10.70;;
3873;SDS011;1952;50.872;6.692;2022-11-20T01:38:55;14.33;;;10.23;;
3873;SDS011;1952;50.872;6.692;2022-11-20T01:41:24;14.00;;;10.13;;
3873;SDS011;1952;50.872;6.692;2022-11-20T01:44:10;14.50;;;11.13;;
3873;SDS011;1952;50.872;6.692;2022-11-20T01:46:45;17.20;;;10.20;;
3873;SDS011;1952;50.872;6.692;2022-11-20T01:49:26;16.97;;;11.40;;
3873;SDS011;1952;50.872;6.692;2022-11-20T01:52:02;18.20;;;11.67;;
3873;SDS011;1952;50.872;6.692;2022-11-20T01:54:33;17.43;;;11.90;;
3873;SDS011;1952;50.872;6.692;2022-11-20T01:57:08;19.53;;;12.20;;
3873;SDS011;1952;50.872;6.692;2022-11-20T01:59:41;17.50;;;11.37;;
3873;SDS011;1952;50.872;6.692;2022-11-20T02:02:19;18.30;;;12.30;;
3873;SDS011;1952;50.872;6.692;2022-11-20T02:04:54;17.93;;;12.70;;
3873;SDS011;1952;50.872;6.692;2022-11-20T02:07:24;23.63;;;14.73;;
3873;SDS011;1952;50.872;6.692;2022-11-20T02:09:58;17.43;;;13.90;;
3873;SDS011;1952;50.872;6.692;2022-11-20T02:12:30;18.23;;;12.93;;
3873;SDS011;1952;50.872;6.692;2022-11-20T02:15:16;22.23;;;16.07;;
3873;SDS011;1952;50.872;6.692;2022-11-20T02:17:45;17.13;;;12.23;;
3873;SDS011;1952;50.872;6.692;2022-11-20T02:20:14;18.97;;;11.13;;
3873;SDS011;1952;50.872;6.692;2022-11-20T02:22:48;15.67;;;11.13;;
3873;SDS011;1952;50.872;6.692;2022-11-20T02:25:20;15.57;;;11.17;;
3873;SDS011;1952;50.872;6.692;2022-11-20T02:27:48;15.37;;;11.20;;
3873;SDS011;1952;50.872;6.692;2022-11-20T02:30:17;21.90;;;15.80;;
3873;SDS011;1952;50.872;6.692;2022-11-20T02:32:50;13.90;;;10.47;;
3873;SDS011;1952;50.872;6.692;2022-11-20T02:38:12;21.27;;;15.20;;
3873;SDS011;1952;50.872;6.692;2022-11-20T02:40:42;15.73;;;10.77;;
3873;SDS011;1952;50.872;6.692;2022-11-20T02:43:10;20.27;;;14.77;;
3873;SDS011;1952;50.872;6.692;2022-11-20T02:45:38;19.20;;;14.40;;
3873;SDS011;1952;50.872;6.692;2022-11-20T02:48:11;22.03;;;13.90;;
3873;SDS011;1952;50.872;6.692;2022-11-20T02:50:40;19.57;;;13.77;;
3873;SDS011;1952;50.872;6.692;2022-11-20T02:53:08;16.27;;;12.60;;
3873;SDS011;1952;50.872;6.692;2022-11-20T02:55:37;19.60;;;14.53;;
3873;SDS011;1952;50.872;6.692;2022-11-20T02:58:06;20.83;;;14.70;;
3873;SDS011;1952;50.872;6.692;2022-11-20T03:00:39;23.37;;;16.17;;
3873;SDS011;1952;50.872;6.692;2022-11-20T03:03:08;26.83;;;17.60;;
3873;SDS011;1952;50.872;6.692;2022-11-20T03:05:41;22.70;;;14.67;;
3873;SDS011;1952;50.872;6.692;2022-11-20T03:08:09;24.63;;;15.27;;
3873;SDS011;1952;50.872;6.692;2022-11-20T03:10:37;22.63;;;15.60;;
3873;SDS011;1952;50.872;6.692;2022-11-20T03:13:07;19.97;;;14.17;;
3873;SDS011;1952;50.872;6.692;2022-11-20T03:15:35;27.63;;;17.03;;
3873;SDS011;1952;50.872;6.692;2022-11-20T03:18:04;16.87;;;13.27;;
3873;SDS011;1952;50.872;6.692;2022-11-20T03:20:37;24.60;;;15.30;;
3873;SDS011;1952;50.872;6.692;2022-11-20T03:23:05;23.87;;;15.67;;
3873;SDS011;1952;50.872;6.692;2022-11-20T03:25:33;22.60;;;16.57;;
3873;SDS011;1952;50.872;6.692;2022-11-20T03:28:08;25.43;;;15.33;;
3873;SDS011;1952;50.872;6.692;2022-11-20T03:30:37;22.73;;;15.20;;
3873;SDS011;1952;50.872;6.692;2022-11-20T03:33:10;25.13;;;16.90;;
3873;SDS011;1952;50.872;6.692;2022-11-20T03:35:38;24.03;;;15.90;;
3873;SDS011;1952;50.872;6.692;2022-11-20T03:38:11;21.20;;;13.20;;
3873;SDS011;1952;50.872;6.692;2022-11-20T03:40:39;20.70;;;14.17;;
3873;SDS011;1952;50.872;6.692;2022-11-20T03:43:10;21.03;;;16.40;;
3873;SDS011;1952;50.872;6.692;2022-11-20T03:45:38;23.87;;;14.80;;
3873;SDS011;1952;50.872;6.692;2022-11-20T03:48:06;22.90;;;14.20;;
3873;SDS011;1952;50.872;6.692;2022-11-20T03:50:35;19.63;;;12.83;;
3873;SDS011;1952;50.872;6.692;2022-11-20T03:53:08;22.10;;;15.43;;
3873;SDS011;1952;50.872;6.692;2022-11-20T03:55:36;20.77;;;14.40;;
3873;SDS011;1952;50.872;6.692;2022-11-20T03:58:10;29.27;;;16.33;;
3873;SDS011;1952;50.872;6.692;2022-11-20T04:00:39;22.40;;;14.40;;
3873;SDS011;1952;50.872;6.692;2022-11-20T04:03:07;22.50;;;14.87;;
3873;SDS011;1952;50.872;6.692;2022-11-20T04:05:35;26.13;;;16.23;;
3873;SDS011;1952;50.872;6.692;2022-11-20T04:08:04;18.97;;;14.70;;
3873;SDS011;1952;50.872;6.692;2022-11-20T04:10:37;21.47;;;15.20;;
3873;SDS011;1952;50.872;6.692;2022-11-20T04:13:12;29.77;;;17.60;;
3873;SDS011;1952;50.872;6.692;2022-11-20T04:15:40;25.17;;;15.93;;
3873;SDS011;1952;50.872;6.692;2022-11-20T04:18:08;22.57;;;15.53;;
3873;SDS011;1952;50.872;6.692;2022-11-20T04:20:41;30.33;;;18.17;;
3873;SDS011;1952;50.872;6.692;2022-11-20T04:23:14;24.37;;;15.97;;
3873;SDS011;1952;50.872;6.692;2022-11-20T04:25:48;25.57;;;15.80;;
3873;SDS011;1952;50.872;6.692;2022-11-20T04:28:17;26.33;;;16.97;;
3873;SDS011;1952;50.872;6.692;2022-11-20T04:30:50;25.60;;;15.33;;
3873;SDS011;1952;50.872;6.692;2022-11-20T04:33:19;21.97;;;15.30;;
3873;SDS011;1952;50.872;6.692;2022-11-20T04:35:52;22.47;;;15.67;;
3873;SDS011;1952;50.872;6.692;2022-11-20T04:38:20;24.97;;;16.03;;
3873;SDS011;1952;50.872;6.692;2022-11-20T04:40:48;24.47;;;16.13;;
3873;SDS011;1952;50.872;6.692;2022-11-20T04:43:23;22.40;;;15.17;;
3873;SDS011;1952;50.872;6.692;2022-11-20T04:45:51;24.20;;;15.07;;
3873;SDS011;1952;50.872;6.692;2022-11-20T04:48:25;25.60;;;15.90;;
3873;SDS011;1952;50.872;6.692;2022-11-20T04:50:53;23.27;;;15.53;;
3873;SDS011;1952;50.872;6.692;2022-11-20T04:53:26;24.27;;;15.60;;
3873;SDS011;1952;50.872;6.692;2022-11-20T04:55:58;28.67;;;16.87;;
3873;SDS011;1952;50.872;6.692;2022-11-20T04:58:33;24.70;;;16.90;;
3873;SDS011;1952;50.872;6.692;2022-11-20T05:01:02;23.50;;;14.67;;
3873;SDS011;1952;50.872;6.692;2022-11-20T05:03:36;25.23;;;16.77;;
3873;SDS011;1952;50.872;6.692;2022-11-20T05:06:08;21.80;;;13.90;;
3873;SDS011;1952;50.872;6.692;2022-11-20T05:08:37;24.77;;;15.43;;
3873;SDS011;1952;50.872;6.692;2022-11-20T05:11:06;28.30;;;17.77;;
3873;SDS011;1952;50.872;6.692;2022-11-20T05:13:36;24.93;;;17.47;;
3873;SDS011;1952;50.872;6.692;2022-11-20T05:16:05;26.30;;;17.37;;
3873;SDS011;1952;50.872;6.692;2022-11-20T05:18:35;24.77;;;17.10;;
3873;SDS011;1952;50.872;6.692;2022-11-20T05:21:09;26.03;;;16.23;;
3873;SDS011;1952;50.872;6.692;2022-11-20T05:23:37;23.40;;;15.37;;
3873;SDS011;1952;50.872;6.692;2022-11-20T05:26:06;22.60;;;14.20;;
3873;SDS011;1952;50.872;6.692;2022-11-20T05:28:36;23.10;;;17.20;;
3873;SDS011;1952;50.872;6.692;2022-11-20T05:31:05;22.50;;;16.03;;
3873;SDS011;1952;50.872;6.692;2022-11-20T05:33:39;24.17;;;15.87;;
3873;SDS011;1952;50.872;6.692;2022-11-20T05:36:08;24.30;;;16.43;;
3873;SDS011;1952;50.872;6.692;2022-11-20T05:38:36;23.13;;;15.10;;
3873;SDS011;1952;50.872;6.692;2022-11-20T05:41:05;27.60;;;17.57;;
3873;SDS011;1952;50.872;6.692;2022-11-20T05:43:33;22.10;;;14.33;;
3873;SDS011;1952;50.872;6.692;2022-11-20T05:46:08;28.30;;;18.07;;
3873;SDS011;1952;50.872;6.692;2022-11-20T05:48:37;29.70;;;16.33;;
3873;SDS011;1952;50.872;6.692;2022-11-20T05:51:07;25.57;;;16.30;;
3873;SDS011;1952;50.872;6.692;2022-11-20T06:33:23;22.03;;;16.47;;
3873;SDS011;1952;50.872;6.692;2022-11-20T06:35:52;20.60;;;13.27;;
3873;SDS011;1952;50.872;6.692;2022-11-20T06:38:27;17.27;;;13.70;;
3873;SDS011;1952;50.872;6.692;2022-11-20T06:40:55;20.53;;;13.10;;
3873;SDS011;1952;50.872;6.692;2022-11-20T06:43:29;18.47;;;13.77;;
3873;SDS011;1952;50.872;6.692;2022-11-20T06:45:57;23.10;;;14.90;;
3873;SDS011;1952;50.872;6.692;2022-11-20T06:48:27;23.50;;;16.40;;
3873;SDS011;1952;50.872;6.692;2022-11-20T06:50:56;18.63;;;14.77;;
3873;SDS011;1952;50.872;6.692;2022-11-20T06:53:29;19.17;;;14.60;;
3873;SDS011;1952;50.872;6.692;2022-11-20T06:55:58;23.50;;;15.50;;
3873;SDS011;1952;50.872;6.692;2022-11-20T06:58:26;26.53;;;16.47;;
3873;SDS011;1952;50.872;6.692;2022-11-20T07:00:57;28.80;;;17.80;;
3873;SDS011;1952;50.872;6.692;2022-11-20T07:03:25;26.63;;;16.27;;
3873;SDS011;1952;50.872;6.692;2022-11-20T07:06:00;24.77;;;15.97;;
3873;SDS011;1952;50.872;6.692;2022-11-20T07:08:34;25.07;;;16.20;;
3873;SDS011;1952;50.872;6.692;2022-11-20T07:11:07;21.37;;;14.30;;
3873;SDS011;1952;50.872;6.692;2022-11-20T07:13:35;23.97;;;16.47;;
3873;SDS011;1952;50.872;6.692;2022-11-20T07:16:08;32.20;;;17.90;;
3873;SDS011;1952;50.872;6.692;2022-11-20T07:18:36;31.83;;;19.53;;
3873;SDS011;1952;50.872;6.692;2022-11-20T07:21:11;29.23;;;17.10;;
3873;SDS011;1952;50.872;6.692;2022-11-20T07:23:39;27.33;;;16.70;;
3873;SDS011;1952;50.872;6.692;2022-11-20T07:26:08;24.57;;;16.47;;
3873;SDS011;1952;50.872;6.692;2022-11-20T07:28:36;31.40;;;17.57;;
3873;SDS011;1952;50.872;6.692;2022-11-20T07:31:05;26.90;;;17.67;;
3873;SDS011;1952;50.872;6.692;2022-11-20T07:33:33;26.70;;;17.90;;
3873;SDS011;1952;50.872;6.692;2022-11-20T07:36:07;23.50;;;15.53;;
3873;SDS011;1952;50.872;6.692;2022-11-20T07:38:37;34.83;;;16.77;;
3873;SDS011;1952;50.872;6.692;2022-11-20T07:41:06;26.30;;;19.57;;
3873;SDS011;1952;50.872;6.692;2022-11-20T07:43:39;34.03;;;19.67;;
3873;SDS011;1952;50.872;6.692;2022-11-20T07:46:07;28.10;;;18.43;;
3873;SDS011;1952;50.872;6.692;2022-11-20T07:48:37;23.70;;;15.20;;
3873;SDS011;1952;50.872;6.692;2022-11-20T07:51:05;24.97;;;17.17;;
3873;SDS011;1952;50.872;6.692;2022-11-20T07:53:33;27.73;;;17.80;;
3873;SDS011;1952;50.872;6.692;2022-11-20T07:56:03;25.83;;;17.83;;
3873;SDS011;1952;50.872;6.692;2022-11-20T07:58:36;26.10;;;17.80;;
3873;SDS011;1952;50.872;6.692;2022-11-20T08:01:04;34.60;;;17.93;;
3873;SDS011;1952;50.872;6.692;2022-11-20T08:03:37;30.80;;;18.20;;
3873;SDS011;1952;50.872;6.692;2022-11-20T08:06:06;27.00;;;16.27;;
3873;SDS011;1952;50.872;6.692;2022-11-20T08:08:39;24.63;;;16.70;;
3873;SDS011;1952;50.872;6.692;2022-11-20T08:11:09;26.93;;;17.17;;
3873;SDS011;1952;50.872;6.692;2022-11-20T08:13:55;21.63;;;15.80;;
3873;SDS011;1952;50.872;6.692;2022-11-20T08:16:38;30.83;;;18.57;;
3873;SDS011;1952;50.872;6.692;2022-11-20T08:19:07;25.87;;;15.50;;
3873;SDS011;1952;50.872;6.692;2022-11-20T08:21:35;25.10;;;15.10;;
3873;SDS011;1952;50.872;6.692;2022-11-20T08:24:04;21.87;;;14.00;;
3873;SDS011;1952;50.872;6.692;2022-11-20T08:26:34;20.50;;;13.07;;
3873;SDS011;1952;50.872;6.692;2022-11-20T08:29:07;28.40;;;18.70;;
3873;SDS011;1952;50.872;6.692;2022-11-20T08:31:36;23.47;;;15.57;;
3873;SDS011;1952;50.872;6.692;2022-11-20T08:34:04;23.10;;;16.17;;
3873;SDS011;1952;50.872;6.692;2022-11-20T08:36:37;28.90;;;19.27;;
3873;SDS011;1952;50.872;6.692;2022-11-20T08:39:11;22.00;;;14.03;;
3873;SDS011;1952;50.872;6.692;2022-11-20T08:41:41;25.67;;;15.43;;
3873;SDS011;1952;50.872;6.692;2022-11-20T08:44:09;31.23;;;18.70;;
3873;SDS011;1952;50.872;6.692;2022-11-20T08:46:38;30.80;;;20.07;;
3873;SDS011;1952;50.872;6.692;2022-11-20T08:49:12;35.10;;;19.40;;
3873;SDS011;1952;50.872;6.692;2022-11-20T08:51:41;25.43;;;17.57;;
3873;SDS011;1952;50.872;6.692;2022-11-20T08:54:09;31.97;;;18.13;;
3873;SDS011;1952;50.872;6.692;2022-11-20T08:56:37;28.50;;;18.80;;
3873;SDS011;1952;50.872;6.692;2022-11-20T08:59:12;26.97;;;17.10;;
3873;SDS011;1952;50.872;6.692;2022-11-20T09:02:00;28.17;;;16.30;;
3873;SDS011;1952;50.872;6.692;2022-11-20T09:04:28;26.33;;;15.20;;
3873;SDS011;1952;50.872;6.692;2022-11-20T09:06:56;26.20;;;16.90;;
3873;SDS011;1952;50.872;6.692;2022-11-20T09:09:24;24.73;;;15.37;;
3873;SDS011;1952;50.872;6.692;2022-11-20T09:11:53;24.27;;;16.20;;
3873;SDS011;1952;50.872;6.692;2022-11-20T09:14:27;25.20;;;15.07;;
3873;SDS011;1952;50.872;6.692;2022-11-20T09:17:01;33.53;;;18.03;;
3873;SDS011;1952;50.872;6.692;2022-11-20T09:19:29;29.30;;;16.60;;
3873;SDS011;1952;50.872;6.692;2022-11-20T09:22:01;23.60;;;16.80;;
3873;SDS011;1952;50.872;6.692;2022-11-20T09:24:35;22.60;;;16.00;;
3873;SDS011;1952;50.872;6.692;2022-11-20T09:27:08;29.47;;;15.90;;
3873;SDS011;1952;50.872;6.692;2022-11-20T09:29:42;23.10;;;15.87;;
3873;SDS011;1952;50.872;6.692;2022-11-20T09:32:11;27.33;;;17.30;;
3873;SDS011;1952;50.872;6.692;2022-11-20T09:34:39;27.03;;;15.33;;
3873;SDS011;1952;50.872;6.692;2022-11-20T09:37:07;24.60;;;16.97;;
3873;SDS011;1952;50.872;6.692;2022-11-20T09:39:36;23.57;;;14.87;;
3873;SDS011;1952;50.872;6.692;2022-11-20T09:42:31;23.83;;;15.10;;
3873;SDS011;1952;50.872;6.692;2022-11-20T09:45:12;19.93;;;15.07;;
3873;SDS011;1952;50.872;6.692;2022-11-20T09:47:47;23.37;;;14.90;;
3873;SDS011;1952;50.872;6.692;2022-11-20T09:50:23;23.40;;;14.40;;
3873;SDS011;1952;50.872;6.692;2022-11-20T09:52:57;26.33;;;15.20;;
3873;SDS011;1952;50.872;6.692;2022-11-20T09:55:29;20.40;;;13.70;;
3873;SDS011;1952;50.872;6.692;2022-11-20T09:57:58;24.77;;;15.80;;
3873;SDS011;1952;50.872;6.692;2022-11-20T10:00:30;21.77;;;15.53;;
3873;SDS011;1952;50.872;6.692;2022-11-20T10:03:00;22.00;;;13.90;;
3873;SDS011;1952;50.872;6.692;2022-11-20T10:05:30;20.57;;;13.03;;
3873;SDS011;1952;50.872;6.692;2022-11-20T10:08:01;23.43;;;14.50;;
3873;SDS011;1952;50.872;6.692;2022-11-20T10:10:35;21.00;;;14.50;;
3873;SDS011;1952;50.872;6.692;2022-11-20T10:13:14;26.80;;;16.40;;
3873;SDS011;1952;50.872;6.692;2022-11-20T10:15:48;25.83;;;16.53;;
3873;SDS011;1952;50.872;6.692;2022-11-20T10:18:23;23.43;;;15.00;;
3873;SDS011;1952;50.872;6.692;2022-11-20T10:20:56;16.77;;;11.40;;
3873;SDS011;1952;50.872;6.692;2022-11-20T10:23:38;19.97;;;13.73;;
3873;SDS011;1952;50.872;6.692;2022-11-20T10:26:14;27.23;;;17.53;;
3873;SDS011;1952;50.872;6.692;2022-11-20T10:28:46;23.70;;;13.90;;
3873;SDS011;1952;50.872;6.692;2022-11-20T10:31:23;19.03;;;14.10;;
3873;SDS011;1952;50.872;6.692;2022-11-20T10:33:56;22.33;;;13.87;;
3873;SDS011;1952;50.872;6.692;2022-11-20T10:36:32;19.70;;;13.50;;
3873;SDS011;1952;50.872;6.692;2022-11-20T10:39:11;27.30;;;18.03;;
3873;SDS011;1952;50.872;6.692;2022-11-20T10:41:42;21.07;;;15.70;;
3873;SDS011;1952;50.872;6.692;2022-11-20T10:44:24;27.63;;;15.27;;
3873;SDS011;1952;50.872;6.692;2022-11-20T10:47:14;25.73;;;17.40;;
3873;SDS011;1952;50.872;6.692;2022-11-20T10:49:43;23.60;;;16.27;;
3873;SDS011;1952;50.872;6.692;2022-11-20T10:52:20;22.13;;;14.67;;
3873;SDS011;1952;50.872;6.692;2022-11-20T10:54:58;23.83;;;13.33;;
3873;SDS011;1952;50.872;6.692;2022-11-20T10:57:48;25.40;;;15.80;;
3873;SDS011;1952;50.872;6.692;2022-11-20T11:00:25;20.17;;;13.23;;
3873;SDS011;1952;50.872;6.692;2022-11-20T11:02:57;23.70;;;15.27;;
3873;SDS011;1952;50.872;6.692;2022-11-20T11:05:33;23.87;;;15.30;;
3873;SDS011;1952;50.872;6.692;2022-11-20T11:08:04;23.63;;;16.83;;
3873;SDS011;1952;50.872;6.692;2022-11-20T11:10:42;18.10;;;12.13;;
3873;SDS011;1952;50.872;6.692;2022-11-20T11:13:19;24.00;;;15.10;;
3873;SDS011;1952;50.872;6.692;2022-11-20T11:15:47;23.10;;;16.17;;
3873;SDS011;1952;50.872;6.692;2022-11-20T11:18:24;19.00;;;14.10;;
3873;SDS011;1952;50.872;6.692;2022-11-20T11:20:55;23.00;;;15.77;;
3873;SDS011;1952;50.872;6.692;2022-11-20T11:23:39;19.53;;;14.73;;
3873;SDS011;1952;50.872;6.692;2022-11-20T11:26:18;16.67;;;13.07;;
3873;SDS011;1952;50.872;6.692;2022-11-20T11:28:52;18.63;;;14.93;;
3873;SDS011;1952;50.872;6.692;2022-11-20T11:31:25;21.57;;;17.87;;
3873;SDS011;1952;50.872;6.692;2022-11-20T11:34:04;18.10;;;12.50;;
3873;SDS011;1952;50.872;6.692;2022-11-20T11:36:39;22.10;;;15.07;;
3873;SDS011;1952;50.872;6.692;2022-11-20T11:39:14;19.37;;;15.03;;
3873;SDS011;1952;50.872;6.692;2022-11-20T11:41:48;18.10;;;12.97;;
3873;SDS011;1952;50.872;6.692;2022-11-20T11:44:18;20.07;;;13.80;;
3873;SDS011;1952;50.872;6.692;2022-11-20T11:47:05;18.80;;;14.10;;
3873;SDS011;1952;50.872;6.692;2022-11-20T11:49:37;19.70;;;13.50;;
3873;SDS011;1952;50.872;6.692;2022-11-20T11:52:08;18.60;;;13.60;;
3873;SDS011;1952;50.872;6.692;2022-11-20T12:52:44;14.30;;;10.40;;
3873;SDS011;1952;50.872;6.692;2022-11-20T12:55:16;12.57;;;10.33;;
3873;SDS011;1952;50.872;6.692;2022-11-20T12:58:11;14.80;;;12.53;;
3873;SDS011;1952;50.872;6.692;2022-11-20T13:00:51;18.20;;;12.47;;
3873;SDS011;1952;50.872;6.692;2022-11-20T13:03:42;17.87;;;13.80;;
3873;SDS011;1952;50.872;6.692;2022-11-20T13:06:30;20.50;;;13.37;;
3873;SDS011;1952;50.872;6.692;2022-11-20T13:09:23;19.83;;;14.20;;
3873;SDS011;1952;50.872;6.692;2022-11-20T13:12:16;15.53;;;11.60;;
3873;SDS011;1952;50.872;6.692;2022-11-20T13:15:22;21.27;;;13.87;;
3873;SDS011;1952;50.872;6.692;2022-11-20T13:18:08;18.80;;;13.40;;
3873;SDS011;1952;50.872;6.692;2022-11-20T13:20:41;21.37;;;12.97;;
3873;SDS011;1952;50.872;6.692;2022-11-20T13:23:25;17.97;;;12.37;;
3873;SDS011;1952;50.872;6.692;2022-11-20T13:26:22;15.37;;;12.17;;
3873;SDS011;1952;50.872;6.692;2022-11-20T13:28:59;22.40;;;14.43;;
3873;SDS011;1952;50.872;6.692;2022-11-20T13:31:43;19.27;;;13.63;;
3873;SDS011;1952;50.872;6.692;2022-11-20T13:34:14;18.80;;;13.67;;
3873;SDS011;1952;50.872;6.692;2022-11-20T13:36:57;16.00;;;10.77;;
3873;SDS011;1952;50.872;6.692;2022-11-20T13:39:32;20.37;;;14.60;;
3873;SDS011;1952;50.872;6.692;2022-11-20T13:45:21;21.60;;;14.47;;
3873;SDS011;1952;50.872;6.692;2022-11-20T13:47:51;20.07;;;15.07;;
3873;SDS011;1952;50.872;6.692;2022-11-20T13:50:38;20.33;;;15.00;;
3873;SDS011;1952;50.872;6.692;2022-11-20T13:53:26;17.23;;;12.77;;
3873;SDS011;1952;50.872;6.692;2022-11-20T13:56:21;17.20;;;11.40;;
3873;SDS011;1952;50.872;6.692;2022-11-20T13:59:13;19.20;;;13.70;;
3873;SDS011;1952;50.872;6.692;2022-11-20T14:01:58;12.47;;;11.00;;
3873;SDS011;1952;50.872;6.692;2022-11-20T14:04:42;14.67;;;11.30;;
3873;SDS011;1952;50.872;6.692;2022-11-20T14:07:32;20.30;;;13.90;;
3873;SDS011;1952;50.872;6.692;2022-11-20T14:10:18;12.40;;;10.03;;
3873;SDS011;1952;50.872;6.692;2022-11-20T14:12:56;16.57;;;10.37;;
3873;SDS011;1952;50.872;6.692;2022-11-20T14:15:42;16.10;;;12.60;;
3873;SDS011;1952;50.872;6.692;2022-11-20T14:18:40;25.23;;;15.47;;
3873;SDS011;1952;50.872;6.692;2022-11-20T14:21:21;22.83;;;15.80;;
3873;SDS011;1952;50.872;6.692;2022-11-20T14:23:51;14.57;;;11.50;;
3873;SDS011;1952;50.872;6.692;2022-11-20T14:26:21;13.03;;;10.37;;
3873;SDS011;1952;50.872;6.692;2022-11-20T14:28:49;17.70;;;11.50;;
3873;SDS011;1952;50.872;6.692;2022-11-20T14:31:21;15.40;;;11.23;;
3873;SDS011;1952;50.872;6.692;2022-11-20T14:33:51;18.00;;;13.27;;
3873;SDS011;1952;50.872;6.692;2022-11-20T14:36:21;20.83;;;14.47;;
3873;SDS011;1952;50.872;6.692;2022-11-20T14:38:50;24.67;;;14.87;;
3873;SDS011;1952;50.872;6.692;2022-11-20T14:41:19;19.70;;;13.93;;
3873;SDS011;1952;50.872;6.692;2022-11-20T14:43:49;15.90;;;11.30;;
3873;SDS011;1952;50.872;6.692;2022-11-20T14:46:25;21.07;;;15.43;;
3873;SDS011;1952;50.872;6.692;2022-11-20T14:49:00;21.13;;;12.07;;
3873;SDS011;1952;50.872;6.692;2022-11-20T14:51:30;21.63;;;15.00;;
3873;SDS011;1952;50.872;6.692;2022-11-20T14:54:08;19.63;;;13.90;;
3873;SDS011;1952;50.872;6.692;2022-11-20T14:56:37;26.23;;;16.07;;
3873;SDS011;1952;50.872;6.692;2022-11-20T14:59:10;19.53;;;13.43;;
3873;SDS011;1952;50.872;6.692;2022-11-20T15:01:40;20.70;;;14.73;;
3873;SDS011;1952;50.872;6.692;2022-11-20T15:04:22;23.03;;;14.80;;
3873;SDS011;1952;50.872;6.692;2022-11-20T15:06:53;17.13;;;12.23;;
3873;SDS011;1952;50.872;6.692;2022-11-20T15:09:27;19.33;;;13.70;;
3873;SDS011;1952;50.872;6.692;2022-11-20T15:12:00;21.77;;;15.47;;
3873;SDS011;1952;50.872;6.692;2022-11-20T15:14:30;21.43;;;14.43;;
3873;SDS011;1952;50.872;6.692;2022-11-20T15:17:01;23.97;;;15.40;;
3873;SDS011;1952;50.872;6.692;2022-11-20T15:19:29;18.40;;;13.07;;
3873;SDS011;1952;50.872;6.692;2022-11-20T15:21:57;21.10;;;15.47;;
3873;SDS011;1952;50.872;6.692;2022-11-20T15:24:26;18.23;;;12.77;;
3873;SDS011;1952;50.872;6.692;2022-11-20T15:26:54;15.60;;;10.90;;
3873;SDS011;1952;50.872;6.692;2022-11-20T15:29:27;17.23;;;13.20;;
3873;SDS011;1952;50.872;6.692;2022-11-20T15:31:55;18.50;;;12.83;;
3873;SDS011;1952;50.872;6.692;2022-11-20T15:34:26;20.10;;;16.60;;
3873;SDS011;1952;50.872;6.692;2022-11-20T15:36:54;19.10;;;14.77;;
3873;SDS011;1952;50.872;6.692;2022-11-20T15:39:29;19.23;;;14.73;;
3873;SDS011;1952;50.872;6.692;2022-11-20T15:41:57;28.57;;;18.13;;
3873;SDS011;1952;50.872;6.692;2022-11-20T15:44:30;19.57;;;14.43;;
3873;SDS011;1952;50.872;6.692;2022-11-20T15:46:59;14.60;;;11.50;;
3873;SDS011;1952;50.872;6.692;2022-11-20T15:49:34;11.43;;;8.93;;
3873;SDS011;1952;50.872;6.692;2022-11-20T15:52:04;11.63;;;7.53;;
3873;SDS011;1952;50.872;6.692;2022-11-20T15:54:34;11.37;;;7.63;;
3873;SDS011;1952;50.872;6.692;2022-11-20T15:57:04;10.93;;;8.37;;
3873;SDS011;1952;50.872;6.692;2022-11-20T15:59:33;7.40;;;6.70;;
3873;SDS011;1952;50.872;6.692;2022-11-20T16:02:04;8.50;;;6.70;;
3873;SDS011;1952;50.872;6.692;2022-11-20T16:04:40;7.87;;;6.57;;
3873;SDS011;1952;50.872;6.692;2022-11-20T16:07:09;7.97;;;5.87;;
3873;SDS011;1952;50.872;6.692;2022-11-20T16:09:40;11.43;;;6.13;;
3873;SDS011;1952;50.872;6.692;2022-11-20T16:12:08;5.93;;;5.07;;
3873;SDS011;1952;50.872;6.692;2022-11-20T16:14:58;5.87;;;4.33;;
3873;SDS011;1952;50.872;6.692;2022-11-20T16:17:49;4.90;;;4.43;;
3873;SDS011;1952;50.872;6.692;2022-11-20T16:20:19;7.07;;;5.70;;
3873;SDS011;1952;50.872;6.692;2022-11-20T16:22:52;5.67;;;4.70;;
3873;SDS011;1952;50.872;6.692;2022-11-20T16:25:26;5.93;;;5.23;;
3873;SDS011;1952;50.872;6.692;2022-11-20T16:27:55;7.80;;;4.47;;
3873;SDS011;1952;50.872;6.692;2022-11-20T16:30:27;4.90;;;4.00;;
3873;SDS011;1952;50.872;6.692;2022-11-20T16:32:58;5.00;;;4.40;;
3873;SDS011;1952;50.872;6.692;2022-11-20T16:35:28;4.27;;;3.87;;
3873;SDS011;1952;50.872;6.692;2022-11-20T16:37:57;6.90;;;3.87;;
3873;SDS011;1952;50.872;6.692;2022-11-20T16:40:33;5.17;;;4.60;;
3873;SDS011;1952;50.872;6.692;2022-11-20T16:43:06;5.60;;;4.17;;
3873;SDS011;1952;50.872;6.692;2022-11-20T16:45:44;5.43;;;4.40;;
3873;SDS011;1952;50.872;6.692;2022-11-20T16:48:13;4.80;;;4.40;;
3873;SDS011;1952;50.872;6.692;2022-11-20T16:50:47;4.70;;;4.13;;
3873;SDS011;1952;50.872;6.692;2022-11-20T16:53:15;5.60;;;5.03;;
3873;SDS011;1952;50.872;6.692;2022-11-20T16:56:14;6.73;;;6.07;;
3873;SDS011;1952;50.872;6.692;2022-11-20T16:58:43;13.17;;;6.47;;
3873;SDS011;1952;50.872;6.692;2022-11-20T17:01:18;7.00;;;6.30;;
3873;SDS011;1952;50.872;6.692;2022-11-20T17:03:53;7.93;;;7.23;;
3873;SDS011;1952;50.872;6.692;2022-11-20T17:06:28;8.40;;;6.27;;
3873;SDS011;1952;50.872;6.692;2022-11-20T17:08:57;9.43;;;7.17;;
3873;SDS011;1952;50.872;6.692;2022-11-20T17:11:26;9.70;;;5.17;;
3873;SDS011;1952;50.872;6.692;2022-11-20T17:13:54;8.80;;;5.07;;
3873;SDS011;1952;50.872;6.692;2022-11-20T17:16:25;9.47;;;6.83;;
3873;SDS011;1952;50.872;6.692;2022-11-20T17:18:54;6.80;;;5.87;;
3873;SDS011;1952;50.872;6.692;2022-11-20T17:21:30;11.67;;;7.30;;
3873;SDS011;1952;50.872;6.692;2022-11-20T17:23:59;5.80;;;5.07;;
3873;SDS011;1952;50.872;6.692;2022-11-20T17:26:28;5.60;;;4.60;;
3873;SDS011;1952;50.872;6.692;2022-11-20T17:29:03;7.17;;;4.67;;
3873;SDS011;1952;50.872;6.692;2022-11-20T17:31:32;5.67;;;3.93;;
3873;SDS011;1952;50.872;6.692;2022-11-20T17:34:04;7.20;;;4.40;;
3873;SDS011;1952;50.872;6.692;2022-11-20T17:36:36;4.90;;;4.47;;
3873;SDS011;1952;50.872;6.692;2022-11-20T17:39:07;4.53;;;4.17;;